Time;durP1;ratioP1;P1;durP2;ratioP2;P2;SDS_P1;SDS_P2;PMS_P1;PMS_P2;Temp;Humidity;BMP_temperature;BMP_pressure;BME280_temperature;BME280_humidity;BME280_pressure;Samples;Min_cycle;Max_cycle;Signal;HPM_P1;HPM_P2
2020/12/18 00:01:30;;;;;;;30.70;20.07;;;5.70;99.90;;;;;;5034184;28;20219;-56
2020/12/18 00:03:59;;;;;;;27.50;18.87;;;5.60;99.90;;;;;;5050418;28;20230;-60
2020/12/18 00:06:32;;;;;;;31.77;20.63;;;5.60;99.90;;;;;;5054713;28;20290;-53
2020/12/18 00:08:57;;;;;;;27.97;19.03;;;5.60;99.90;;;;;;5037596;28;20222;-57
2020/12/18 00:11:25;;;;;;;32.93;20.17;;;5.70;99.90;;;;;;5035409;28;20195;-54
2020/12/18 00:13:51;;;;;;;29.13;19.57;;;5.70;99.90;;;;;;5039761;28;20187;-56
2020/12/18 00:16:18;;;;;;;31.63;20.40;;;5.80;99.90;;;;;;5033630;28;20186;-59
2020/12/18 00:18:43;;;;;;;29.90;19.60;;;5.70;99.90;;;;;;5036284;28;20668;-55
2020/12/18 00:21:09;;;;;;;30.97;19.30;;;5.60;99.90;;;;;;5035676;28;20187;-54
2020/12/18 00:23:35;;;;;;;30.07;19.93;;;5.60;99.90;;;;;;5052989;28;20186;-57
2020/12/18 00:26:00;;;;;;;32.40;20.67;;;5.60;99.90;;;;;;5058554;28;20198;-53
2020/12/18 00:28:26;;;;;;;30.33;19.27;;;5.50;99.90;;;;;;5044084;28;20282;-58
2020/12/18 00:30:52;;;;;;;30.47;20.13;;;5.50;99.90;;;;;;5038257;28;20207;-56
2020/12/18 00:33:17;;;;;;;29.30;19.23;;;5.50;99.90;;;;;;5050618;28;20546;-55
2020/12/18 00:35:44;;;;;;;27.53;18.30;;;5.40;99.90;;;;;;5058695;28;20167;-57
2020/12/18 00:38:09;;;;;;;30.73;19.83;;;5.50;99.90;;;;;;5048188;28;20207;-56
2020/12/18 00:40:35;;;;;;;32.10;21.43;;;5.50;99.90;;;;;;5039019;28;20191;-57
2020/12/18 00:43:00;;;;;;;29.40;19.93;;;5.50;99.90;;;;;;5045228;28;20182;-58
2020/12/18 00:45:26;;;;;;;33.77;20.43;;;5.50;99.90;;;;;;5058434;28;20266;-57
2020/12/18 00:47:51;;;;;;;30.70;19.37;;;5.40;99.90;;;;;;5050726;28;20666;-59
2020/12/18 00:50:17;;;;;;;33.83;20.10;;;5.30;99.90;;;;;;5038925;28;20650;-54
2020/12/18 00:52:43;;;;;;;36.90;20.10;;;5.20;99.90;;;;;;5043026;28;20540;-56
2020/12/18 00:55:08;;;;;;;28.60;19.47;;;5.10;99.90;;;;;;5057620;28;20380;-54
2020/12/18 00:57:34;;;;;;;29.13;19.10;;;5.00;99.90;;;;;;5054373;28;20204;-60
2020/12/18 00:59:59;;;;;;;26.90;17.77;;;5.00;99.90;;;;;;5039269;28;20180;-56
2020/12/18 01:02:25;;;;;;;28.57;18.90;;;5.10;99.90;;;;;;5038775;28;20233;-57
2020/12/18 01:04:52;;;;;;;27.30;18.57;;;5.20;99.90;;;;;;5057489;28;20185;-54
2020/12/18 01:07:17;;;;;;;27.23;18.30;;;5.30;99.90;;;;;;5056999;28;20210;-53
2020/12/18 01:09:43;;;;;;;28.13;18.53;;;5.20;99.90;;;;;;5058043;28;20181;-57
2020/12/18 01:12:11;;;;;;;26.23;17.67;;;5.20;99.90;;;;;;5047560;28;20234;-61
2020/12/18 01:14:38;;;;;;;24.47;17.37;;;5.20;99.90;;;;;;5046410;28;20174;-60
2020/12/18 01:17:03;;;;;;;25.33;16.63;;;5.30;99.90;;;;;;5056934;28;20597;-55
2020/12/18 01:19:29;;;;;;;25.67;17.27;;;5.30;99.90;;;;;;5043312;28;20631;-58
2020/12/18 01:21:54;;;;;;;26.20;18.23;;;5.30;99.90;;;;;;5038492;28;20550;-55
2020/12/18 01:24:20;;;;;;;28.93;19.93;;;5.20;99.90;;;;;;5052417;28;20194;-54
2020/12/18 01:26:48;;;;;;;25.10;17.30;;;5.10;99.90;;;;;;5039431;28;20566;-60
2020/12/18 01:29:14;;;;;;;27.90;18.73;;;5.20;99.90;;;;;;5043877;28;20179;-58
2020/12/18 01:31:40;;;;;;;25.63;17.63;;;5.10;99.90;;;;;;5057136;28;20646;-53
2020/12/18 01:34:05;;;;;;;23.50;15.87;;;5.20;99.90;;;;;;5056114;28;20171;-58
2020/12/18 01:36:31;;;;;;;20.73;15.47;;;5.20;99.90;;;;;;5056909;28;20176;-60
2020/12/18 01:38:57;;;;;;;25.37;16.20;;;5.00;99.90;;;;;;5057827;28;20186;-58
2020/12/18 01:41:22;;;;;;;19.03;14.47;;;4.80;99.90;;;;;;5051963;28;20602;-54
2020/12/18 01:43:48;;;;;;;24.63;16.17;;;4.70;99.90;;;;;;5056840;28;20179;-58
2020/12/18 01:46:15;;;;;;;23.63;17.00;;;4.60;99.90;;;;;;5056145;28;20210;-58
2020/12/18 01:48:42;;;;;;;25.00;17.27;;;4.60;99.90;;;;;;5056092;28;20294;-55
2020/12/18 01:51:10;;;;;;;22.77;16.87;;;4.70;99.90;;;;;;5054743;28;20175;-59
2020/12/18 01:53:39;;;;;;;25.50;16.87;;;4.80;99.90;;;;;;5055375;28;20591;-52
2020/12/18 01:56:07;;;;;;;27.73;18.97;;;4.90;99.90;;;;;;5057676;28;20190;-56
2020/12/18 01:58:36;;;;;;;22.53;16.67;;;4.90;99.90;;;;;;5055785;28;20199;-60
2020/12/18 02:01:06;;;;;;;22.73;16.33;;;5.00;99.90;;;;;;5057521;28;20175;-53
2020/12/18 02:03:32;;;;;;;22.93;16.20;;;5.10;99.90;;;;;;5055815;28;20680;-59
2020/12/18 02:06:02;;;;;;;23.67;16.63;;;5.10;99.90;;;;;;5056748;28;20182;-56
2020/12/18 02:08:29;;;;;;;25.43;17.53;;;5.10;99.90;;;;;;5056118;28;20643;-60
2020/12/18 02:10:59;;;;;;;129.80;22.90;;;5.00;99.90;;;;;;5056323;28;20183;-59
2020/12/18 02:13:25;;;;;;;69.03;19.87;;;4.90;99.90;;;;;;5057972;28;20190;-57
2020/12/18 02:15:52;;;;;;;380.03;34.20;;;4.70;99.90;;;;;;5056424;28;20183;-55
2020/12/18 02:18:20;;;;;;;72.13;18.97;;;4.50;99.90;;;;;;5057029;28;20606;-54
2020/12/18 02:20:46;;;;;;;19.43;14.37;;;4.50;99.90;;;;;;5056537;28;20258;-55
2020/12/18 02:23:12;;;;;;;37.00;16.07;;;4.50;99.90;;;;;;5057100;28;20203;-56
2020/12/18 02:25:40;;;;;;;194.00;24.63;;;4.30;99.90;;;;;;5056304;28;20171;-57
2020/12/18 02:28:07;;;;;;;38.00;16.23;;;4.20;99.90;;;;;;5056943;28;20210;-55
2020/12/18 02:30:32;;;;;;;94.20;18.63;;;4.10;99.90;;;;;;5056484;28;20179;-54
2020/12/18 02:32:58;;;;;;;241.37;23.00;;;3.90;99.90;;;;;;5056422;28;20646;-54
2020/12/18 02:35:23;;;;;;;20.87;14.83;;;3.90;99.90;;;;;;5057423;28;20181;-55
2020/12/18 02:37:53;;;;;;;19.23;14.10;;;4.00;99.90;;;;;;5057113;28;20607;-56
2020/12/18 02:40:18;;;;;;;19.33;13.73;;;4.20;99.90;;;;;;5057926;28;20179;-54
2020/12/18 02:42:44;;;;;;;18.83;14.47;;;4.30;99.90;;;;;;5039774;28;20514;-53
2020/12/18 02:45:09;;;;;;;23.47;14.77;;;4.30;99.90;;;;;;5057094;28;20187;-54
2020/12/18 02:47:35;;;;;;;20.83;15.00;;;4.20;99.90;;;;;;5055276;28;20206;-54
2020/12/18 02:50:00;;;;;;;18.33;13.63;;;4.10;99.90;;;;;;5056104;28;20258;-58
2020/12/18 02:52:26;;;;;;;18.73;13.97;;;4.00;99.90;;;;;;5056532;28;20207;-58
2020/12/18 02:54:52;;;;;;;18.93;13.97;;;3.90;99.90;;;;;;5055270;28;20207;-58
2020/12/18 02:57:18;;;;;;;18.17;13.03;;;4.10;99.90;;;;;;5056480;28;20253;-55
2020/12/18 02:59:43;;;;;;;17.37;13.27;;;4.10;99.90;;;;;;5055833;28;20554;-53
2020/12/18 03:02:09;;;;;;;17.00;13.07;;;4.20;99.90;;;;;;5055530;28;20182;-53
2020/12/18 03:04:34;;;;;;;36.07;15.37;;;4.30;99.90;;;;;;5054332;28;20201;-57
2020/12/18 03:07:00;;;;;;;18.03;14.20;;;4.40;99.90;;;;;;5055422;28;20217;-59
2020/12/18 03:09:25;;;;;;;19.30;14.20;;;4.30;99.90;;;;;;5037190;28;20181;-57
2020/12/18 03:11:51;;;;;;;21.77;14.83;;;4.50;99.90;;;;;;5054819;28;20198;-59
2020/12/18 03:14:16;;;;;;;166.60;23.17;;;4.60;99.90;;;;;;5055731;28;20171;-53
2020/12/18 03:16:42;;;;;;;20.00;13.93;;;4.60;99.90;;;;;;5054636;28;20209;-54
2020/12/18 03:19:07;;;;;;;22.20;15.43;;;4.70;99.90;;;;;;5054637;28;20202;-56
2020/12/18 03:21:33;;;;;;;22.03;15.67;;;4.70;99.90;;;;;;5055096;28;20175;-54
2020/12/18 03:23:58;;;;;;;22.63;15.43;;;4.80;99.90;;;;;;5039750;28;20207;-60
2020/12/18 03:26:24;;;;;;;139.87;21.87;;;4.70;99.90;;;;;;5044970;28;20195;-59
2020/12/18 03:28:50;;;;;;;20.57;14.57;;;4.60;99.90;;;;;;5033177;28;20191;-60
2020/12/18 03:31:16;;;;;;;21.70;15.17;;;4.60;99.90;;;;;;5047402;28;20538;-56
2020/12/18 03:33:41;;;;;;;20.23;14.53;;;4.50;99.90;;;;;;5055247;28;20234;-54
2020/12/18 03:36:07;;;;;;;18.97;14.07;;;4.50;99.90;;;;;;5054294;28;20195;-55
2020/12/18 03:38:32;;;;;;;17.83;13.20;;;4.40;99.90;;;;;;5053485;28;20194;-58
2020/12/18 03:40:58;;;;;;;18.97;14.07;;;4.50;99.90;;;;;;5046218;28;20180;-57
2020/12/18 03:43:23;;;;;;;19.90;14.23;;;4.50;99.90;;;;;;5032947;28;20191;-59
2020/12/18 03:45:51;;;;;;;44.47;15.37;;;4.60;99.90;;;;;;5043673;28;20179;-55
2020/12/18 03:48:16;;;;;;;37.43;14.37;;;4.70;99.90;;;;;;5050994;28;20191;-56
2020/12/18 03:50:42;;;;;;;20.73;13.87;;;4.60;99.90;;;;;;5034873;28;20178;-59
2020/12/18 03:53:07;;;;;;;20.17;13.17;;;4.50;99.90;;;;;;5040600;28;20177;-58
2020/12/18 03:55:33;;;;;;;15.57;12.30;;;4.50;99.90;;;;;;5049774;28;20549;-57
2020/12/18 03:57:58;;;;;;;19.13;14.13;;;4.60;99.90;;;;;;5064900;28;20203;-53
2020/12/18 04:00:24;;;;;;;16.70;12.67;;;4.60;99.90;;;;;;5053758;28;20198;-58
2020/12/18 04:02:49;;;;;;;18.07;13.83;;;4.60;99.90;;;;;;5054096;28;20532;-60
2020/12/18 04:05:15;;;;;;;20.03;14.80;;;4.70;99.90;;;;;;5055512;28;20559;-56
2020/12/18 04:07:40;;;;;;;17.97;13.33;;;4.80;99.90;;;;;;5053427;28;20229;-60
2020/12/18 04:10:06;;;;;;;16.73;12.77;;;4.80;99.90;;;;;;5053339;28;20167;-60
2020/12/18 04:12:31;;;;;;;17.03;12.50;;;4.90;99.90;;;;;;5053081;28;20159;-58
2020/12/18 04:14:57;;;;;;;16.33;12.17;;;4.90;99.90;;;;;;5053475;28;20503;-54
2020/12/18 04:17:23;;;;;;;16.90;13.20;;;5.00;99.90;;;;;;5053316;28;20199;-57
2020/12/18 04:19:48;;;;;;;16.70;12.23;;;5.00;99.90;;;;;;5054796;28;20598;-58
2020/12/18 04:22:14;;;;;;;18.80;13.27;;;5.00;99.90;;;;;;5053855;28;20171;-53
2020/12/18 04:24:39;;;;;;;15.77;12.73;;;5.10;99.90;;;;;;5052920;28;20213;-56
2020/12/18 04:27:05;;;;;;;18.03;13.30;;;5.10;99.90;;;;;;5053094;28;20206;-56
2020/12/18 04:29:30;;;;;;;16.03;11.87;;;5.10;99.90;;;;;;5047477;28;20505;-54
2020/12/18 04:31:56;;;;;;;15.60;12.07;;;5.10;99.90;;;;;;5036342;28;20175;-56
2020/12/18 04:34:21;;;;;;;14.73;11.53;;;5.10;99.90;;;;;;5041249;28;20207;-56
2020/12/18 04:36:47;;;;;;;15.40;12.50;;;5.10;99.90;;;;;;5034938;28;20202;-58
2020/12/18 04:39:13;;;;;;;27.90;13.70;;;5.00;99.90;;;;;;5054486;28;20593;-55
2020/12/18 04:41:38;;;;;;;17.17;12.53;;;4.90;99.90;;;;;;5053757;28;20205;-55
2020/12/18 04:44:04;;;;;;;23.20;12.43;;;4.80;99.90;;;;;;5034729;28;20176;-59
2020/12/18 04:46:32;;;;;;;13.43;10.87;;;4.80;99.90;;;;;;5038578;28;20210;-59
2020/12/18 04:48:58;;;;;;;21.47;11.97;;;4.80;99.90;;;;;;5035311;28;20179;-60
2020/12/18 04:51:26;;;;;;;14.00;10.83;;;4.70;99.90;;;;;;5033609;28;20176;-57
2020/12/18 04:53:54;;;;;;;15.60;11.67;;;4.70;99.90;;;;;;5051005;28;20171;-55
2020/12/18 04:56:26;;;;;;;14.73;11.30;;;4.50;99.90;;;;;;5054101;28;20187;-59
2020/12/18 04:58:54;;;;;;;14.93;11.43;;;4.50;99.90;;;;;;5049397;28;20248;-57
2020/12/18 05:01:22;;;;;;;15.80;11.10;;;4.50;99.90;;;;;;5053536;28;20175;-57
2020/12/18 05:03:48;;;;;;;12.80;10.70;;;4.60;99.90;;;;;;5034236;28;20578;-60
2020/12/18 05:06:14;;;;;;;12.93;10.50;;;4.60;99.90;;;;;;5033258;28;20208;-55
2020/12/18 05:08:42;;;;;;;11.80;9.77;;;4.50;99.90;;;;;;5053072;28;20195;-55
2020/12/18 05:11:34;;;;;;;12.30;10.03;;;4.40;99.90;;;;;;5056209;28;20214;-55
2020/12/18 05:14:00;;;;;;;11.63;9.23;;;4.30;99.90;;;;;;5053332;28;20198;-54
2020/12/18 05:16:25;;;;;;;13.43;9.87;;;4.40;99.90;;;;;;5049775;28;20180;-55
2020/12/18 05:18:52;;;;;;;21.50;13.07;;;4.30;99.90;;;;;;5036787;28;20180;-57
2020/12/18 05:21:18;;;;;;;13.73;11.30;;;4.20;99.90;;;;;;5046848;28;20643;-57
2020/12/18 05:23:45;;;;;;;39.80;32.77;;;4.10;99.90;;;;;;5037652;28;20255;-56
2020/12/18 05:26:13;;;;;;;39.60;31.60;;;4.20;99.90;;;;;;5047684;28;20207;-54
2020/12/18 05:28:43;;;;;;;31.30;24.00;;;4.20;99.90;;;;;;5056702;28;20226;-60
2020/12/18 05:31:10;;;;;;;17.73;13.30;;;4.30;99.90;;;;;;5048135;28;20245;-56
2020/12/18 05:33:36;;;;;;;13.53;10.87;;;4.40;99.90;;;;;;5036367;28;20198;-60
2020/12/18 05:36:02;;;;;;;13.57;10.70;;;4.30;99.90;;;;;;5044091;28;20179;-56
2020/12/18 05:38:28;;;;;;;15.67;11.77;;;4.30;99.90;;;;;;5051703;28;20196;-57
2020/12/18 05:40:57;;;;;;;14.47;11.47;;;4.40;99.90;;;;;;5036960;28;20179;-57
2020/12/18 05:43:22;;;;;;;14.93;12.00;;;4.40;99.90;;;;;;5038316;28;20188;-59
2020/12/18 05:45:48;;;;;;;13.80;10.97;;;4.40;99.90;;;;;;5056601;28;20175;-53
2020/12/18 05:48:14;;;;;;;12.57;10.17;;;4.40;99.90;;;;;;5056035;28;20191;-58
2020/12/18 05:50:41;;;;;;;13.30;10.43;;;4.30;99.90;;;;;;5055233;28;20183;-59
2020/12/18 05:53:08;;;;;;;12.80;10.60;;;4.30;99.90;;;;;;5057066;28;20623;-56
2020/12/18 05:55:38;;;;;;;15.60;11.73;;;4.30;99.90;;;;;;5055309;28;20183;-53
2020/12/18 05:58:03;;;;;;;14.77;11.60;;;4.30;99.90;;;;;;5056193;28;20528;-57
2020/12/18 06:00:29;;;;;;;12.53;10.07;;;4.20;99.90;;;;;;5049928;28;20650;-54
2020/12/18 06:03:02;;;;;;;12.00;10.00;;;4.30;99.90;;;;;;5036486;28;20180;-60
2020/12/18 06:05:28;;;;;;;11.67;9.60;;;4.40;99.90;;;;;;5035783;28;20189;-54
2020/12/18 06:07:54;;;;;;;12.07;10.13;;;4.40;99.90;;;;;;5047772;28;20233;-56
2020/12/18 06:10:22;;;;;;;18.93;10.93;;;4.50;99.90;;;;;;5054705;28;20265;-55
2020/12/18 06:12:49;;;;;;;14.50;11.50;;;4.50;99.90;;;;;;5056031;28;20163;-57
2020/12/18 06:15:17;;;;;;;13.13;10.27;;;4.40;99.90;;;;;;5047757;28;20258;-59
2020/12/18 06:17:45;;;;;;;12.20;9.53;;;4.30;99.90;;;;;;5036022;28;20253;-57
2020/12/18 06:20:15;;;;;;;12.80;9.37;;;4.20;99.90;;;;;;5052290;28;20187;-56
2020/12/18 06:22:58;;;;;;;10.93;9.20;;;4.10;99.90;;;;;;5056309;28;20182;-57
2020/12/18 06:25:24;;;;;;;12.30;9.93;;;4.10;99.90;;;;;;5054388;28;20229;-58
2020/12/18 06:28:02;;;;;;;21.60;10.83;;;4.10;99.90;;;;;;5052051;28;20215;-58
2020/12/18 06:30:29;;;;;;;87.53;13.57;;;4.10;99.90;;;;;;5040159;28;20186;-58
2020/12/18 06:32:55;;;;;;;11.70;9.30;;;3.90;99.90;;;;;;5045143;28;20176;-60
2020/12/18 06:35:36;;;;;;;12.83;10.10;;;3.90;99.90;;;;;;5045413;28;20176;-59
2020/12/18 06:38:14;;;;;;;13.73;10.10;;;3.80;99.90;;;;;;5051020;28;20218;-56
2020/12/18 06:40:40;;;;;;;12.07;9.73;;;4.00;99.90;;;;;;5050677;28;20519;-56
2020/12/18 06:43:06;;;;;;;11.47;9.50;;;4.00;99.90;;;;;;5049913;28;20694;-55
2020/12/18 06:45:32;;;;;;;12.17;9.97;;;4.00;99.90;;;;;;5056688;28;20194;-55
2020/12/18 06:47:57;;;;;;;13.07;10.30;;;4.00;99.90;;;;;;5047147;28;20208;-55
2020/12/18 06:50:23;;;;;;;166.27;20.20;;;4.10;99.90;;;;;;5036566;28;20678;-59
2020/12/18 06:52:56;;;;;;;20.13;15.30;;;3.90;99.90;;;;;;5035713;28;20578;-54
2020/12/18 06:55:25;;;;;;;23.63;13.67;;;3.80;99.90;;;;;;5036711;28;20267;-58
2020/12/18 06:58:05;;;;;;;23.67;15.50;;;3.70;99.90;;;;;;5045090;28;20286;-56
2020/12/18 07:00:33;;;;;;;13.10;10.70;;;3.70;99.90;;;;;;5056368;28;20285;-55
2020/12/18 07:02:58;;;;;;;18.00;13.80;;;3.70;99.90;;;;;;5056125;28;20232;-55
2020/12/18 07:05:28;;;;;;;24.97;10.33;;;4.80;99.90;;;;;;5052810;28;20265;-58
2020/12/18 07:07:57;;;;;;;15.63;11.67;;;3.60;99.90;;;;;;5034645;28;20264;-55
2020/12/18 07:10:33;;;;;;;12.93;10.17;;;3.70;99.90;;;;;;5037719;28;20532;-59
2020/12/18 07:12:59;;;;;;;20.53;11.57;;;3.70;99.90;;;;;;5035281;28;20186;-58
2020/12/18 07:15:51;;;;;;;23.83;12.10;;;3.80;99.90;;;;;;5035197;28;20176;-57
2020/12/18 07:18:26;;;;;;;12.00;9.30;;;3.80;99.90;;;;;;5029186;28;20210;-54
2020/12/18 07:21:04;;;;;;;11.70;9.73;;;3.80;99.90;;;;;;5018633;28;20186;-52
2020/12/18 07:23:30;;;;;;;25.17;10.37;;;3.80;99.90;;;;;;5034989;28;20198;-53
2020/12/18 07:25:58;;;;;;;20.33;9.77;;;3.60;99.90;;;;;;5034306;28;20190;-54
2020/12/18 07:28:25;;;;;;;13.17;9.30;;;3.60;99.90;;;;;;5017936;28;20198;-53
2020/12/18 07:30:51;;;;;;;29.47;24.33;;;3.60;99.90;;;;;;5033982;28;20230;-58
2020/12/18 07:33:19;;;;;;;211.63;18.63;;;3.60;99.90;;;;;;5034513;28;20176;-56
2020/12/18 07:35:50;;;;;;;392.93;28.60;;;3.50;99.90;;;;;;5034642;28;20636;-55
2020/12/18 07:38:23;;;;;;;22.73;10.70;;;3.30;99.90;;;;;;5034675;28;20195;-58
2020/12/18 07:40:52;;;;;;;11.40;9.33;;;3.40;99.90;;;;;;5017452;28;20631;-56
2020/12/18 07:43:19;;;;;;;109.73;14.13;;;3.40;99.90;;;;;;5035067;28;20515;-56
2020/12/18 07:45:47;;;;;;;11.07;8.97;;;3.50;99.90;;;;;;5034666;28;20187;-57
2020/12/18 07:48:18;;;;;;;150.70;19.43;;;3.30;99.90;;;;;;5061441;28;20198;-53
2020/12/18 07:51:09;;;;;;;215.30;20.13;;;3.30;99.90;;;;;;5051753;28;20175;-53
2020/12/18 07:53:42;;;;;;;99.17;13.33;;;3.30;99.90;;;;;;5051268;28;20167;-54
2020/12/18 07:56:19;;;;;;;14.23;11.43;;;3.20;99.90;;;;;;5052071;28;20250;-57
2020/12/18 07:58:50;;;;;;;79.53;14.90;;;3.20;99.90;;;;;;5049251;28;20233;-52
2020/12/18 08:01:21;;;;;;;18.87;12.80;;;3.20;99.90;;;;;;5062791;28;20198;-55
2020/12/18 08:03:52;;;;;;;103.50;19.00;;;3.10;99.90;;;;;;5052675;28;20575;-53
2020/12/18 08:06:19;;;;;;;20.17;9.40;;;3.10;99.90;;;;;;5042560;28;20205;-57
2020/12/18 08:08:53;;;;;;;10.97;8.97;;;3.20;99.90;;;;;;5059357;28;20195;-53
2020/12/18 08:11:20;;;;;;;11.10;8.63;;;3.30;99.90;;;;;;5063972;28;20236;-57
2020/12/18 08:13:47;;;;;;;104.97;15.23;;;3.40;99.90;;;;;;5059948;28;20171;-57
2020/12/18 08:16:18;;;;;;;9.70;8.50;;;3.50;99.90;;;;;;5068065;28;20268;-54
2020/12/18 08:18:50;;;;;;;10.30;8.77;;;3.50;99.90;;;;;;5057738;28;20195;-56
2020/12/18 08:21:20;;;;;;;20.27;10.20;;;3.70;99.90;;;;;;5058306;28;20183;-54
2020/12/18 08:23:50;;;;;;;9.17;8.07;;;3.80;99.90;;;;;;5061187;28;20250;-52
2020/12/18 08:26:15;;;;;;;9.43;8.43;;;4.00;99.90;;;;;;5069911;28;20209;-53
2020/12/18 08:28:43;;;;;;;11.37;9.00;;;4.20;99.90;;;;;;5057146;28;20190;-53
2020/12/18 08:31:09;;;;;;;15.00;9.03;;;4.20;99.90;;;;;;5070338;28;20174;-53
2020/12/18 08:33:36;;;;;;;9.57;8.40;;;4.10;99.90;;;;;;5067884;28;20209;-56
2020/12/18 08:36:03;;;;;;;9.10;7.73;;;4.10;99.90;;;;;;5065162;28;20279;-55
2020/12/18 08:38:28;;;;;;;9.50;8.43;;;4.30;99.90;;;;;;5066741;28;20205;-54
2020/12/18 08:40:58;;;;;;;32.10;9.70;;;4.50;99.90;;;;;;5059061;28;20167;-54
2020/12/18 08:43:24;;;;;;;9.30;7.53;;;4.50;99.90;;;;;;5073476;28;20171;-55
2020/12/18 08:45:50;;;;;;;9.90;7.87;;;4.60;99.90;;;;;;5064854;28;20170;-55
2020/12/18 08:48:26;;;;;;;31.57;10.47;;;4.60;99.90;;;;;;5067642;28;20234;-54
2020/12/18 08:50:59;;;;;;;23.27;9.87;;;4.50;99.90;;;;;;5073758;28;20200;-54
2020/12/18 08:53:32;;;;;;;8.73;7.03;;;4.50;99.90;;;;;;5074551;28;20205;-57
2020/12/18 08:56:06;;;;;;;9.90;7.87;;;4.60;99.90;;;;;;5065786;28;20171;-55
2020/12/18 08:58:33;;;;;;;9.13;7.70;;;4.70;99.90;;;;;;5064890;28;20240;-52
2020/12/18 09:01:00;;;;;;;8.93;8.03;;;4.70;99.90;;;;;;5073891;28;20205;-52
2020/12/18 09:03:25;;;;;;;8.83;7.63;;;4.70;99.90;;;;;;5044232;28;20170;-55
2020/12/18 09:05:51;;;;;;;10.63;8.13;;;4.80;99.90;;;;;;5070419;28;20179;-56
2020/12/18 09:08:19;;;;;;;9.13;8.13;;;4.70;99.90;;;;;;5059907;28;20713;-56
2020/12/18 09:10:59;;;;;;;10.63;8.30;;;4.70;99.90;;;;;;5062432;28;20212;-52
2020/12/18 09:13:28;;;;;;;9.57;8.33;;;4.60;99.90;;;;;;5044059;28;20170;-57
2020/12/18 09:16:02;;;;;;;11.10;7.93;;;4.60;99.90;;;;;;5069564;28;20167;-54
2020/12/18 09:18:30;;;;;;;10.73;9.50;;;4.70;99.90;;;;;;5069336;28;20216;-55
2020/12/18 09:21:12;;;;;;;9.87;8.33;;;4.70;99.90;;;;;;5076628;28;20204;-57
2020/12/18 09:23:38;;;;;;;11.70;8.70;;;4.70;99.90;;;;;;5047330;28;20173;-59
2020/12/18 09:26:04;;;;;;;10.40;8.57;;;4.70;99.90;;;;;;5068596;28;20175;-55
2020/12/18 09:28:41;;;;;;;10.30;8.80;;;4.70;99.90;;;;;;5065224;28;20252;-56
2020/12/18 09:31:10;;;;;;;10.57;8.83;;;4.80;99.90;;;;;;5060419;28;20179;-55
2020/12/18 09:33:37;;;;;;;10.27;8.57;;;4.80;99.90;;;;;;5068889;28;20621;-57
2020/12/18 09:36:06;;;;;;;10.47;9.23;;;4.80;99.90;;;;;;5057541;28;20175;-59
2020/12/18 09:38:34;;;;;;;10.30;8.83;;;4.80;99.90;;;;;;5055204;28;20234;-59
2020/12/18 09:41:02;;;;;;;13.73;9.40;;;4.90;99.90;;;;;;5055745;28;20574;-56
2020/12/18 09:43:28;;;;;;;12.87;9.90;;;5.00;99.90;;;;;;5057440;28;20186;-53
2020/12/18 09:45:55;;;;;;;10.20;8.97;;;5.00;99.90;;;;;;5056639;28;20179;-56
2020/12/18 09:48:21;;;;;;;29.90;11.27;;;5.00;99.90;;;;;;5056342;28;20360;-59
2020/12/18 09:50:52;;;;;;;10.70;9.20;;;4.90;99.90;;;;;;5056138;28;20218;-56
2020/12/18 09:53:17;;;;;;;9.67;8.47;;;4.80;99.90;;;;;;5055386;28;20258;-59
2020/12/18 09:55:43;;;;;;;18.67;10.60;;;4.80;99.90;;;;;;5054966;28;20742;-58
2020/12/18 09:58:09;;;;;;;57.90;12.97;;;4.80;99.90;;;;;;5055488;28;20340;-52
2020/12/18 10:00:34;;;;;;;52.43;13.40;;;4.60;99.90;;;;;;5056023;28;20185;-54
2020/12/18 10:03:00;;;;;;;144.43;17.40;;;4.60;99.90;;;;;;5056191;28;20635;-56
2020/12/18 10:05:26;;;;;;;10.40;9.03;;;4.40;99.90;;;;;;5056017;28;20233;-57
2020/12/18 10:07:53;;;;;;;19.27;10.83;;;4.40;99.90;;;;;;5057188;28;20225;-56
2020/12/18 10:10:19;;;;;;;47.83;19.40;;;4.60;99.90;;;;;;5057098;28;20187;-59
2020/12/18 10:12:44;;;;;;;24.27;13.60;;;4.60;99.90;;;;;;5056347;28;20178;-59
2020/12/18 10:15:10;;;;;;;104.47;33.33;;;4.70;99.90;;;;;;5055950;28;20254;-56
2020/12/18 10:17:35;;;;;;;12.73;10.97;;;4.60;99.90;;;;;;5056733;28;20716;-53
2020/12/18 10:20:02;;;;;;;10.70;9.33;;;4.50;99.90;;;;;;5056146;28;20184;-53
2020/12/18 10:22:28;;;;;;;10.93;9.43;;;4.40;99.90;;;;;;5056055;28;20209;-56
2020/12/18 10:24:53;;;;;;;39.30;11.60;;;4.50;99.90;;;;;;5056427;28;20512;-57
2020/12/18 10:27:19;;;;;;;45.60;12.73;;;4.60;99.90;;;;;;5056950;28;20210;-60
2020/12/18 10:29:45;;;;;;;10.90;9.67;;;4.50;99.90;;;;;;5057064;28;20211;-55
2020/12/18 10:32:10;;;;;;;12.17;10.33;;;4.50;99.90;;;;;;5056084;28;20186;-53
2020/12/18 10:34:36;;;;;;;57.87;13.60;;;4.70;99.90;;;;;;5038144;28;20634;-57
2020/12/18 10:37:02;;;;;;;87.67;16.17;;;4.70;99.90;;;;;;5055550;28;20199;-53
2020/12/18 10:39:27;;;;;;;49.80;13.33;;;4.70;99.90;;;;;;5055741;28;20229;-53
2020/12/18 10:41:54;;;;;;;11.97;10.27;;;4.50;99.90;;;;;;5056604;28;20206;-57
2020/12/18 10:44:20;;;;;;;12.97;10.80;;;4.60;99.90;;;;;;5056021;28;20193;-56
2020/12/18 10:46:47;;;;;;;14.70;9.50;;;4.70;99.90;;;;;;5055162;28;20206;-53
2020/12/18 10:49:13;;;;;;;40.40;11.67;;;4.70;99.90;;;;;;5056398;28;20179;-59
2020/12/18 10:51:43;;;;;;;11.07;9.40;;;4.50;99.90;;;;;;5056064;28;20599;-55
2020/12/18 10:54:09;;;;;;;158.07;44.60;;;4.50;99.90;;;;;;5056236;28;20175;-55
2020/12/18 10:56:42;;;;;;;133.23;33.03;;;4.30;99.90;;;;;;5056541;28;20194;-53
2020/12/18 10:59:08;;;;;;;43.30;12.90;;;4.30;99.90;;;;;;5055600;28;20638;-57
2020/12/18 11:01:34;;;;;;;17.53;11.50;;;4.30;99.90;;;;;;5056597;28;20266;-53
2020/12/18 11:04:00;;;;;;;15.80;13.67;;;4.30;99.90;;;;;;5055909;28;20178;-54
2020/12/18 11:06:25;;;;;;;11.27;9.80;;;4.60;99.90;;;;;;5056486;28;20198;-54
2020/12/18 11:08:51;;;;;;;12.07;9.90;;;4.80;99.90;;;;;;5056511;28;20179;-56
2020/12/18 11:11:16;;;;;;;17.53;14.03;;;4.80;99.90;;;;;;5055695;28;20211;-57
2020/12/18 11:13:42;;;;;;;26.73;13.73;;;4.80;99.90;;;;;;5055770;28;20603;-54
2020/12/18 11:16:08;;;;;;;14.00;12.30;;;4.90;99.90;;;;;;5054342;28;20199;-58
2020/12/18 11:18:34;;;;;;;12.97;10.33;;;5.00;99.90;;;;;;5054774;28;20764;-52
2020/12/18 11:21:02;;;;;;;11.13;9.70;;;5.10;99.90;;;;;;5055915;28;20175;-54
2020/12/18 11:23:27;;;;;;;10.37;8.60;;;5.20;99.90;;;;;;5056867;28;20183;-52
2020/12/18 11:25:53;;;;;;;16.10;9.97;;;5.30;99.90;;;;;;5054405;28;20230;-54
2020/12/18 11:28:19;;;;;;;12.30;11.00;;;5.30;99.90;;;;;;5054093;28;20214;-58
2020/12/18 11:30:44;;;;;;;10.83;9.07;;;5.10;99.90;;;;;;5039154;28;20188;-59
2020/12/18 11:33:10;;;;;;;31.20;10.80;;;5.00;99.90;;;;;;5035078;28;20175;-57
2020/12/18 11:35:35;;;;;;;11.47;9.70;;;4.80;99.90;;;;;;5034726;28;20188;-55
2020/12/18 11:38:01;;;;;;;33.57;10.27;;;4.70;99.90;;;;;;5034492;28;20207;-52
2020/12/18 11:40:26;;;;;;;13.23;8.97;;;4.70;99.90;;;;;;5035010;28;20179;-57
2020/12/18 11:42:52;;;;;;;41.93;12.57;;;4.70;99.90;;;;;;5033345;28;20310;-53
2020/12/18 11:45:17;;;;;;;11.20;9.53;;;4.60;99.90;;;;;;5034067;28;20582;-56
2020/12/18 11:47:43;;;;;;;10.10;8.50;;;4.60;99.90;;;;;;5033917;28;20219;-57
2020/12/18 11:50:11;;;;;;;10.83;9.00;;;4.70;99.90;;;;;;5036085;28;20176;-55
2020/12/18 11:52:36;;;;;;;9.97;8.67;;;4.90;99.90;;;;;;5033670;28;20512;-53
2020/12/18 11:55:02;;;;;;;26.77;18.63;;;5.10;99.90;;;;;;5033065;28;20638;-55
2020/12/18 11:57:28;;;;;;;11.60;9.57;;;5.30;99.90;;;;;;5032972;28;20200;-52
2020/12/18 11:59:53;;;;;;;9.00;8.07;;;5.30;99.90;;;;;;5034171;28;20202;-54
2020/12/18 12:02:19;;;;;;;12.00;8.87;;;5.50;99.90;;;;;;5032985;28;20662;-56
2020/12/18 12:04:44;;;;;;;10.20;9.10;;;5.40;99.90;;;;;;5034408;28;20607;-56
2020/12/18 12:07:10;;;;;;;9.97;8.63;;;5.50;99.90;;;;;;5034298;28;20574;-53
2020/12/18 12:09:35;;;;;;;10.20;8.90;;;5.50;99.90;;;;;;5034861;28;20259;-57
2020/12/18 12:12:01;;;;;;;10.53;9.03;;;5.50;99.90;;;;;;5035113;28;20199;-54
2020/12/18 12:14:26;;;;;;;10.63;9.23;;;5.60;99.90;;;;;;5034495;28;20172;-54
2020/12/18 12:16:52;;;;;;;10.43;9.10;;;5.70;99.90;;;;;;5035254;28;20192;-55
2020/12/18 12:19:17;;;;;;;15.13;12.40;;;6.10;99.90;;;;;;5035252;28;20178;-55
2020/12/18 12:21:43;;;;;;;11.80;9.53;;;5.90;99.90;;;;;;5035101;28;20168;-58
2020/12/18 12:24:09;;;;;;;11.27;9.63;;;5.90;99.90;;;;;;5036525;28;20195;-54
2020/12/18 12:26:34;;;;;;;10.77;9.67;;;5.90;99.90;;;;;;5035810;28;20202;-53
2020/12/18 12:29:00;;;;;;;11.97;10.40;;;5.90;99.90;;;;;;5034449;28;20254;-57
2020/12/18 12:31:26;;;;;;;11.20;9.83;;;6.00;99.90;;;;;;5034890;28;20234;-60
2020/12/18 12:33:51;;;;;;;12.00;10.30;;;6.10;99.90;;;;;;5034842;28;20176;-55
2020/12/18 12:36:21;;;;;;;11.73;10.00;;;5.80;99.90;;;;;;5034393;28;20199;-59
2020/12/18 12:38:47;;;;;;;13.47;11.30;;;5.70;99.90;;;;;;5033930;28;20202;-57
2020/12/18 12:41:13;;;;;;;15.17;12.90;;;5.60;99.90;;;;;;5036759;28;20172;-53